createdAt,value
2022-10-13T00:01:55.328Z,939.3
2022-10-13T00:07:07.407Z,939.7
2022-10-13T00:12:21.711Z,940
2022-10-13T00:17:30.987Z,940.6
2022-10-13T00:22:44.249Z,941.2
2022-10-13T00:27:54.819Z,941.6
2022-10-13T00:33:10.826Z,941.6
2022-10-13T00:38:23.680Z,941.4
2022-10-13T00:43:33.441Z,941.2
2022-10-13T00:48:44.586Z,941
2022-10-13T00:53:55.789Z,940.9
2022-10-13T00:59:08.509Z,940.5
2022-10-13T01:09:41.554Z,941.1
2022-10-13T01:14:53.687Z,941.3
2022-10-13T01:25:26.914Z,941
2022-10-13T01:41:24.093Z,940.8
2022-10-13T01:46:35.424Z,940.3
2022-10-13T01:51:45.245Z,940.6
2022-10-13T01:56:57.327Z,940.7
2022-10-13T02:02:08.378Z,940.6
2022-10-13T02:07:20.459Z,940.4
2022-10-13T02:12:32.273Z,940.1
2022-10-13T02:17:46.803Z,940.1
2022-10-13T02:22:56.871Z,940.3
2022-10-13T02:28:06.570Z,940.1
2022-10-13T02:33:19.392Z,940.3
2022-10-13T02:38:31.288Z,939.9
2022-10-13T02:43:43.115Z,940.3
2022-10-13T02:49:03.331Z,940.3
2022-10-13T02:54:12.567Z,940.4
2022-10-13T03:15:29.937Z,940.5
2022-10-13T03:20:45.571Z,940.5
2022-10-13T03:25:58.885Z,940.6
2022-10-13T03:31:07.338Z,940.4
2022-10-13T03:36:18.646Z,940.8
2022-10-13T03:41:28.129Z,940.7
2022-10-13T03:46:38.300Z,940.5
2022-10-13T03:51:48.956Z,940.7
2022-10-13T03:57:00.412Z,940.9
2022-10-13T04:02:11.484Z,941.1
2022-10-13T04:07:22.739Z,940.7
2022-10-13T04:12:35.027Z,940.4
2022-10-13T04:17:50.868Z,940.4
2022-10-13T04:23:03.943Z,940.3
2022-10-13T04:33:36.817Z,940.6
2022-10-13T04:38:49.371Z,940.8
2022-10-13T04:44:04.660Z,940.8
2022-10-13T04:49:17.665Z,940.7
2022-10-13T04:54:31.033Z,940.2
2022-10-13T04:59:42.752Z,939.9
2022-10-13T05:04:55.814Z,940.4
2022-10-13T05:10:08.138Z,940.7
2022-10-13T05:15:20.471Z,940.5
2022-10-13T05:20:31.678Z,940.3
2022-10-13T05:25:43.812Z,940.7
2022-10-13T05:31:05.091Z,940.7
2022-10-13T05:36:09.800Z,941.2
2022-10-13T05:41:25.209Z,941.2
2022-10-13T05:46:38.435Z,941.2
2022-10-13T05:51:50.867Z,941.5
2022-10-13T05:57:02.948Z,941.6
2022-10-13T06:07:36.578Z,941.7
2022-10-13T06:18:12.280Z,941.7
2022-10-13T06:29:00.257Z,941.8
2022-10-13T06:33:58.202Z,941.5
2022-10-13T06:39:13.692Z,941.5
2022-10-13T06:44:25.692Z,941.1
2022-10-13T06:49:40.453Z,940.9
2022-10-13T06:54:53.225Z,941
2022-10-13T07:00:08.854Z,941
2022-10-13T07:05:25.909Z,941
2022-10-13T07:15:59.015Z,940.5
2022-10-13T07:21:12.312Z,940.5
2022-10-13T07:26:23.148Z,940
2022-10-13T07:31:35.975Z,939.5
2022-10-13T07:36:50.180Z,939.5
2022-10-13T07:42:06.286Z,939.3
2022-10-13T07:47:20.919Z,938.9
2022-10-13T07:52:33.391Z,938.9
2022-10-13T08:03:05.070Z,938.2
2022-10-13T08:13:37.171Z,938.1
2022-10-13T08:18:57.906Z,938.1
2022-10-13T08:24:05.255Z,937.9
2022-10-13T08:29:25.456Z,937.8
2022-10-13T08:34:30.866Z,937.4
2022-10-13T08:39:42.422Z,937.3
2022-10-13T08:50:15.973Z,937.2
2022-10-13T09:00:50.654Z,937.7
2022-10-13T09:06:03.437Z,937.1
2022-10-13T09:16:34.869Z,936.9
2022-10-13T09:32:49.871Z,936.8
2022-10-13T09:48:47.146Z,936.6
2022-10-13T10:10:00.295Z,936.5
2022-10-13T10:20:38.956Z,936.5
2022-10-13T10:25:57.086Z,936.5
2022-10-13T10:31:08.595Z,936.5
2022-10-13T10:41:43.055Z,936.4
2022-10-13T10:46:59.559Z,936.4
2022-10-13T10:57:42.029Z,936.4
2022-10-13T11:02:55.511Z,936.4
2022-10-13T11:08:08.015Z,936.3
2022-10-13T11:18:40.589Z,936.1
2022-10-13T11:29:21.726Z,935.9
2022-10-13T11:34:31.871Z,935.9
2022-10-13T11:39:41.915Z,936
2022-10-13T11:50:17.633Z,935.9
2022-10-13T11:55:30.981Z,935.9
2022-10-13T12:00:43.766Z,935.7
2022-10-13T12:05:57.848Z,935.7
2022-10-13T12:11:13.067Z,935.5
2022-10-13T12:21:48.221Z,935.5
2022-10-13T12:27:00.237Z,935.4
2022-10-13T12:42:56.732Z,935.3
2022-10-13T12:48:17.638Z,935.3
2022-10-13T12:58:57.405Z,935.3
2022-10-13T13:04:11.845Z,935.2
2022-10-13T13:09:33.515Z,935.2
2022-10-13T13:25:30.173Z,935.2
2022-10-13T13:30:45.616Z,935.1
2022-10-13T13:36:00.561Z,935.1
2022-10-13T13:41:13.373Z,935
2022-10-13T14:02:31.145Z,935
2022-10-13T14:18:32.087Z,935
2022-10-13T14:23:44.004Z,934.9
2022-10-13T14:45:00.249Z,934.9
2022-10-13T14:55:49.156Z,934.9
2022-10-13T15:01:07.958Z,934.9
2022-10-13T15:06:19.585Z,935
2022-10-13T15:11:35.649Z,935
2022-10-13T15:16:52.387Z,935
2022-10-13T15:27:23.014Z,934.8
2022-10-13T15:32:40.139Z,934.8
2022-10-13T15:37:57.065Z,934.8
2022-10-13T15:43:12.148Z,934.8
2022-10-13T15:48:24.674Z,934.9
2022-10-13T15:53:38.435Z,934.9
2022-10-13T15:58:54.542Z,934.8
2022-10-13T16:04:10.295Z,934.8
2022-10-13T16:09:24.343Z,934.8
2022-10-13T16:14:36.260Z,934.9
2022-10-13T16:25:19.075Z,934.9
2022-10-13T16:30:30.792Z,934.9
2022-10-13T16:35:42.617Z,934.9
2022-10-13T16:46:19.857Z,934.8
2022-10-13T16:51:36.742Z,934.8
2022-10-13T16:56:51.235Z,934.8
2022-10-13T17:02:07.845Z,935
2022-10-13T17:12:46.877Z,935
2022-10-13T17:17:58.010Z,935
2022-10-13T17:23:13.680Z,935
2022-10-13T17:33:48.826Z,935.1
2022-10-13T17:38:59.228Z,935
2022-10-13T17:49:37.042Z,935
2022-10-13T17:54:49.373Z,935.2
2022-10-13T18:00:05.888Z,935.2
2022-10-13T18:11:09.366Z,935.2
2022-10-13T18:15:56.147Z,935.1
2022-10-13T18:21:13.063Z,935.1
2022-10-13T18:31:49.514Z,935.1
2022-10-13T18:42:22.996Z,935.6
2022-10-13T18:47:35.504Z,935.8
2022-10-13T18:52:51.270Z,935.8
2022-10-13T18:58:08.353Z,935.8
2022-10-13T19:08:43.712Z,935.8
2022-10-13T19:13:54.203Z,936
2022-10-13T19:19:06.431Z,936.3
2022-10-13T19:24:19.553Z,936.6
2022-10-13T19:29:28.553Z,936.8
2022-10-13T19:34:39.021Z,937.1
2022-10-13T19:39:50.535Z,937.2
2022-10-13T19:45:04.550Z,936.7
2022-10-13T19:55:37.811Z,937.2
2022-10-13T20:00:50.174Z,937.6
2022-10-13T20:06:03.532Z,937.6
2022-10-13T20:11:24.700Z,938.7
2022-10-13T20:16:37.627Z,938.7
2022-10-13T20:21:49.588Z,938.6
2022-10-13T20:26:59.075Z,939
2022-10-13T20:32:10.284Z,939.7
2022-10-13T20:37:24.386Z,939.7
2022-10-13T20:42:34.137Z,940.2
2022-10-13T20:53:12.861Z,940.2
2022-10-13T20:58:26.025Z,939.8
2022-10-13T21:08:59.305Z,940.1
2022-10-13T21:14:10.439Z,940.4
2022-10-13T21:19:22.042Z,940.2
2022-10-13T21:26:06.156Z,940.2
2022-10-13T21:42:01.418Z,939.8
2022-10-13T21:52:33.261Z,939.1
2022-10-13T21:57:44.984Z,938.7
2022-10-13T22:02:55.649Z,938.5
2022-10-13T22:08:08.343Z,938.1
2022-10-13T22:13:20.387Z,937.6
2022-10-13T22:34:43.606Z,937.6
2022-10-13T22:39:56.127Z,937.5
2022-10-13T22:45:33.548Z,937.8
2022-10-13T22:56:03.238Z,937.5
2022-10-13T23:01:14.289Z,938
2022-10-13T23:06:26.421Z,938.2
2022-10-13T23:22:22.034Z,937.9
2022-10-13T23:38:07.911Z,938.6
2022-10-13T23:43:20.144Z,938.6
2022-10-13T23:59:15.828Z,938.4
